Wetterdaten: Woche 13.06.22 - 19.06.22 (KW24)
Datum Zeit Temp. Aussen Temp. o. S. Temp +5cm Feuchte Auss Luftdruck Regen Sonnenschein Regendauer Solar Windben Empfang
13.06.2022 00:00 15,5 C 14,2 C 11,1 C 76 % 1021,1 hPa 0,0 l/m 0,00 h 0,00 h 0 W/m 1,5 km/h (1 Bft) 99,04 %
13.06.2022 01:00 14,6 C 13,1 C 10,4 C 79 % 1021,1 hPa 0,0 l/m 0,00 h 0,00 h 0 W/m 1,2 km/h (1 Bft) 98,22 %
13.06.2022 02:00 13,6 C 12,3 C 9,5 C 82 % 1020,8 hPa 0,0 l/m 0,00 h 0,00 h 0 W/m 0,9 km/h (0 Bft) 97,43 %
13.06.2022 03:00 13,1 C 12,2 C 9,3 C 84 % 1020,6 hPa 0,0 l/m 0,00 h 0,00 h 0 W/m 0,6 km/h (0 Bft) 96,72 %
13.06.2022 04:00 13,2 C 12,3 C 9,4 C 85 % 1020,7 hPa 0,0 l/m 0,00 h 0,00 h 0 W/m 0,2 km/h (0 Bft) 97,33 %
13.06.2022 05:00 13,4 C 12,9 C 9,9 C 86 % 1020,4 hPa 0,0 l/m 0,00 h 0,00 h 6 W/m 0,0 km/h (0 Bft) 98,72 %
13.06.2022 06:00 13,6 C 12,4 C 9,3 C 89 % 1020,8 hPa 2,4 l/m 0,00 h 0,43 h 37 W/m 4,8 km/h (1 Bft) 95,78 %
13.06.2022 07:00 13,6 C 12,7 C 9,1 C 93 % 1021,2 hPa 0,8 l/m 0,00 h 0,20 h 62 W/m 3,9 km/h (1 Bft) 97,79 %
13.06.2022 08:00 14,1 C 14,3 C 10,1 C 94 % 1021,4 hPa 0,2 l/m 0,47 h 0,07 h 221 W/m 6,3 km/h (2 Bft) 98,86 %
13.06.2022 09:00 16,3 C 20,2 C 12,2 C 90 % 1021,7 hPa 0,0 l/m 0,90 h 0,00 h 522 W/m 11,5 km/h (2 Bft) 94,66 %
13.06.2022 10:00 17,7 C 19,1 C 14,8 C 80 % 1022,1 hPa 0,0 l/m 0,53 h 0,00 h 432 W/m 11,2 km/h (2 Bft) 99,50 %
13.06.2022 11:00 17,9 C 18,6 C 15,2 C 74 % 1022,5 hPa 0,0 l/m 0,13 h 0,00 h 342 W/m 14,2 km/h (3 Bft) 98,24 %
13.06.2022 12:00 19,8 C 21,4 C 21,9 C 64 % 1022,7 hPa 0,0 l/m 0,87 h 0,00 h 850 W/m 15,8 km/h (3 Bft) 97,40 %
13.06.2022 13:00 19,3 C 19,8 C 18,4 C 62 % 1022,9 hPa 0,0 l/m 0,17 h 0,00 h 384 W/m 16,6 km/h (3 Bft) 96,15 %
13.06.2022 14:00 19,9 C 20,9 C 16,7 C 59 % 1023,0 hPa 0,0 l/m 0,40 h 0,00 h 558 W/m 18,9 km/h (3 Bft) 98,01 %
13.06.2022 15:00 20,5 C 22,1 C 16,7 C 56 % 1023,0 hPa 0,0 l/m 0,73 h 0,00 h 682 W/m 19,1 km/h (3 Bft) 97,94 %
13.06.2022 16:00 20,6 C 22,8 C 17,1 C 57 % 1023,0 hPa 0,0 l/m 0,53 h 0,00 h 527 W/m 21,2 km/h (4 Bft) 98,86 %
13.06.2022 17:00 20,7 C 24,6 C 17,4 C 56 % 1023,0 hPa 0,0 l/m 0,93 h 0,00 h 615 W/m 20,7 km/h (4 Bft) 95,35 %
13.06.2022 18:00 20,5 C 25,0 C 17,3 C 53 % 1023,1 hPa 0,0 l/m 1,00 h 0,00 h 468 W/m 18,3 km/h (3 Bft) 99,56 %
13.06.2022 19:00 20,1 C 20,3 C 16,0 C 53 % 1023,1 hPa 0,0 l/m 1,00 h 0,00 h 282 W/m 16,6 km/h (3 Bft) 97,44 %
13.06.2022 20:00 18,5 C 17,5 C 14,0 C 58 % 1023,3 hPa 0,0 l/m 0,00 h 0,00 h 37 W/m 12,9 km/h (3 Bft) 96,65 %
13.06.2022 21:00 16,9 C 15,8 C 12,4 C 64 % 1023,7 hPa 0,0 l/m 0,00 h 0,00 h 15 W/m 8,0 km/h (2 Bft) 98,55 %
13.06.2022 22:00 15,2 C 13,9 C 10,7 C 69 % 1024,1 hPa 0,0 l/m 0,00 h 0,00 h 0 W/m 5,0 km/h (1 Bft) 97,01 %
13.06.2022 23:00 13,9 C 12,6 C 9,6 C 75 % 1024,2 hPa 0,0 l/m 0,00 h 0,00 h 0 W/m 2,3 km/h (1 Bft) 95,49 %
14.06.2022 00:00 12,9 C 11,8 C 8,7 C 78 % 1024,2 hPa 0,0 l/m 0,00 h 0,00 h 0 W/m 0,7 km/h (0 Bft) 95,83 %
14.06.2022 01:00 12,0 C 10,7 C 7,8 C 82 % 1024,4 hPa 0,0 l/m 0,00 h 0,00 h 0 W/m 0,2 km/h (0 Bft) 96,86 %
14.06.2022 02:00 11,3 C 10,2 C 7,2 C 84 % 1024,3 hPa 0,0 l/m 0,00 h 0,00 h 0 W/m 0,2 km/h (0 Bft) 95,11 %
14.06.2022 03:00 10,7 C 9,7 C 6,9 C 85 % 1024,1 hPa 0,0 l/m 0,00 h 0,00 h 0 W/m 0,9 km/h (0 Bft) 95,96 %
14.06.2022 04:00 10,1 C 9,0 C 6,3 C 87 % 1024,0 hPa 0,0 l/m 0,00 h 0,00 h 0 W/m 0,3 km/h (0 Bft) 98,51 %
14.06.2022 05:00 9,6 C 8,3 C 5,7 C 89 % 1023,7 hPa 0,0 l/m 0,00 h 0,00 h 9 W/m 0,0 km/h (0 Bft) 97,93 %
14.06.2022 06:00 9,3 C 8,9 C 5,9 C 91 % 1023,9 hPa 0,0 l/m 0,00 h 0,00 h 26 W/m 0,0 km/h (0 Bft) 98,29 %
14.06.2022 07:00 10,5 C 10,9 C 7,7 C 93 % 1024,0 hPa 0,0 l/m 0,33 h 0,00 h 129 W/m 0,0 km/h (0 Bft) 94,73 %
14.06.2022 08:00 14,1 C 16,8 C 11,3 C 86 % 1024,2 hPa 0,0 l/m 1,00 h 0,00 h 398 W/m 2,5 km/h (1 Bft) 98,92 %
14.06.2022 09:00 17,0 C 21,2 C 14,5 C 73 % 1024,3 hPa 0,0 l/m 0,70 h 0,00 h 519 W/m 6,6 km/h (2 Bft) 97,65 %
14.06.2022 10:00 18,4 C 21,7 C 18,6 C 67 % 1024,0 hPa 0,0 l/m 1,00 h 0,00 h 832 W/m 8,6 km/h (2 Bft) 99,12 %
14.06.2022 11:00 18,5 C 20,2 C 16,9 C 65 % 1023,8 hPa 0,0 l/m 0,53 h 0,00 h 543 W/m 7,4 km/h (2 Bft) 97,72 %
14.06.2022 12:00 19,5 C 21,3 C 22,1 C 62 % 1023,5 hPa 0,0 l/m 0,73 h 0,00 h 760 W/m 9,6 km/h (2 Bft) 95,83 %
14.06.2022 13:00 21,1 C 23,4 C 25,3 C 57 % 1022,8 hPa 0,0 l/m 1,00 h 0,00 h 951 W/m 9,9 km/h (2 Bft) 97,30 %
14.06.2022 14:00 21,9 C 25,2 C 18,6 C 55 % 1022,2 hPa 0,0 l/m 1,00 h 0,00 h 943 W/m 8,9 km/h (2 Bft) 98,57 %
14.06.2022 15:00 22,7 C 26,2 C 18,3 C 51 % 1021,6 hPa 0,0 l/m 1,00 h 0,00 h 882 W/m 9,1 km/h (2 Bft) 97,44 %
14.06.2022 16:00 23,6 C 28,6 C 19,2 C 49 % 1021,1 hPa 0,0 l/m 1,00 h 0,00 h 769 W/m 7,8 km/h (2 Bft) 97,86 %
14.06.2022 17:00 24,4 C 29,6 C 20,2 C 46 % 1020,5 hPa 0,0 l/m 1,00 h 0,00 h 601 W/m 7,6 km/h (2 Bft) 96,51 %
14.06.2022 18:00 24,9 C 30,6 C 21,1 C 45 % 1019,7 hPa 0,0 l/m 1,00 h 0,00 h 465 W/m 7,5 km/h (2 Bft) 99,71 %
14.06.2022 19:00 24,3 C 24,5 C 18,9 C 47 % 1019,3 hPa 0,0 l/m 1,00 h 0,00 h 280 W/m 6,4 km/h (2 Bft) 95,66 %
14.06.2022 20:00 22,1 C 20,6 C 16,4 C 56 % 1019,2 hPa 0,0 l/m 0,00 h 0,00 h 37 W/m 3,4 km/h (1 Bft) 98,95 %
14.06.2022 21:00 20,4 C 18,8 C 15,2 C 59 % 1019,1 hPa 0,0 l/m 0,00 h 0,00 h 14 W/m 2,1 km/h (1 Bft) 97,93 %
14.06.2022 22:00 18,5 C 16,3 C 12,9 C 70 % 1019,4 hPa 0,0 l/m 0,00 h 0,00 h 0 W/m 0,0 km/h (0 Bft) 96,21 %
14.06.2022 23:00 16,4 C 14,8 C 11,5 C 77 % 1019,5 hPa 0,0 l/m 0,00 h 0,00 h 0 W/m 0,0 km/h (0 Bft) 98,08 %
15.06.2022 00:00 15,3 C 14,1 C 10,8 C 80 % 1019,5 hPa 0,0 l/m 0,00 h 0,00 h 0 W/m 0,2 km/h (0 Bft) 97,45 %
15.06.2022 01:00 14,6 C 14,0 C 10,8 C 79 % 1019,1 hPa 0,0 l/m 0,00 h 0,00 h 0 W/m 2,3 km/h (1 Bft) 99,29 %
15.06.2022 02:00 14,3 C 13,4 C 10,2 C 80 % 1018,7 hPa 0,0 l/m 0,00 h 0,00 h 0 W/m 1,3 km/h (1 Bft) 95,40 %
15.06.2022 03:00 13,8 C 12,6 C 9,5 C 83 % 1018,6 hPa 0,0 l/m 0,00 h 0,00 h 0 W/m 0,0 km/h (0 Bft) 97,00 %
15.06.2022 04:00 13,1 C 12,2 C 8,9 C 85 % 1018,4 hPa 0,0 l/m 0,00 h 0,00 h 0 W/m 0,0 km/h (0 Bft) 98,23 %
15.06.2022 05:00 12,7 C 12,2 C 8,9 C 86 % 1018,2 hPa 0,0 l/m 0,00 h 0,00 h 9 W/m 0,0 km/h (0 Bft) 98,54 %
15.06.2022 06:00 12,9 C 12,5 C 9,1 C 86 % 1018,4 hPa 0,0 l/m 0,00 h 0,00 h 22 W/m 0,0 km/h (0 Bft) 95,50 %
15.06.2022 07:00 13,8 C 13,7 C 10,2 C 87 % 1018,4 hPa 0,0 l/m 0,33 h 0,00 h 129 W/m 0,0 km/h (0 Bft) 98,50 %
15.06.2022 08:00 17,2 C 20,0 C 14,1 C 78 % 1018,5 hPa 0,0 l/m 1,00 h 0,00 h 420 W/m 0,0 km/h (0 Bft) 99,16 %
15.06.2022 09:00 21,0 C 27,0 C 18,8 C 66 % 1018,7 hPa 0,0 l/m 1,00 h 0,00 h 587 W/m 0,0 km/h (0 Bft) 97,08 %
15.06.2022 10:00 22,5 C 25,8 C 22,3 C 61 % 1018,7 hPa 0,0 l/m 1,00 h 0,00 h 736 W/m 0,0 km/h (0 Bft) 97,60 %
15.06.2022 11:00 23,9 C 27,2 C 22,1 C 56 % 1018,6 hPa 0,0 l/m 1,00 h 0,00 h 851 W/m 11,3 km/h (2 Bft) 95,80 %
15.06.2022 12:00 25,6 C 28,0 C 28,6 C 52 % 1018,4 hPa 0,0 l/m 1,00 h 0,00 h 926 W/m 9,8 km/h (2 Bft) 99,55 %
15.06.2022 13:00 26,8 C 29,0 C 30,8 C 49 % 1017,9 hPa 0,0 l/m 1,00 h 0,00 h 958 W/m 9,2 km/h (2 Bft) 97,23 %
15.06.2022 14:00 27,9 C 31,0 C 24,0 C 46 % 1017,6 hPa 0,0 l/m 1,00 h 0,00 h 938 W/m 8,8 km/h (2 Bft) 97,29 %
15.06.2022 15:00 28,2 C 30,9 C 23,4 C 47 % 1017,5 hPa 0,0 l/m 1,00 h 0,00 h 866 W/m 10,8 km/h (2 Bft) 98,58 %
15.06.2022 16:00 28,0 C 32,4 C 24,0 C 48 % 1017,4 hPa 0,0 l/m 1,00 h 0,00 h 753 W/m 14,5 km/h (3 Bft) 96,65 %
15.06.2022 17:00 28,2 C 32,7 C 24,2 C 47 % 1017,3 hPa 0,0 l/m 1,00 h 0,00 h 577 W/m 14,2 km/h (3 Bft) 97,94 %
15.06.2022 18:00 27,8 C 32,1 C 23,9 C 48 % 1017,0 hPa 0,0 l/m 1,00 h 0,00 h 463 W/m 14,8 km/h (3 Bft) 99,22 %
15.06.2022 19:00 26,2 C 26,3 C 21,8 C 52 % 1017,0 hPa 0,0 l/m 0,70 h 0,00 h 208 W/m 15,8 km/h (3 Bft) 95,80 %
15.06.2022 20:00 24,2 C 23,4 C 19,6 C 56 % 1017,0 hPa 0,0 l/m 0,00 h 0,00 h 59 W/m 10,8 km/h (2 Bft) 98,43 %
15.06.2022 21:00 23,0 C 21,9 C 18,4 C 59 % 1017,1 hPa 0,0 l/m 0,00 h 0,00 h 17 W/m 7,6 km/h (2 Bft) 97,56 %
15.06.2022 22:00 21,8 C 20,9 C 17,3 C 59 % 1017,4 hPa 0,0 l/m 0,00 h 0,00 h 0 W/m 7,5 km/h (2 Bft) 97,22 %
15.06.2022 23:00 20,7 C 19,5 C 16,1 C 63 % 1017,9 hPa 0,0 l/m 0,00 h 0,00 h 0 W/m 8,6 km/h (2 Bft) 98,05 %
16.06.2022 00:00 19,6 C 18,6 C 15,1 C 67 % 1018,3 hPa 0,0 l/m 0,00 h 0,00 h 0 W/m 11,3 km/h (2 Bft) 98,96 %
16.06.2022 01:00 18,6 C 17,9 C 14,4 C 71 % 1018,2 hPa 0,0 l/m 0,00 h 0,00 h 0 W/m 11,5 km/h (2 Bft) 99,20 %
16.06.2022 02:00 17,9 C 17,0 C 13,6 C 71 % 1018,4 hPa 0,0 l/m 0,00 h 0,00 h 0 W/m 9,3 km/h (2 Bft) 99,10 %
16.06.2022 03:00 17,1 C 16,3 C 12,9 C 70 % 1018,5 hPa 0,0 l/m 0,00 h 0,00 h 0 W/m 8,6 km/h (2 Bft) 97,95 %
16.06.2022 04:00 16,3 C 15,4 C 12,1 C 71 % 1018,8 hPa 0,0 l/m 0,00 h 0,00 h 0 W/m 5,6 km/h (1 Bft) 96,24 %
16.06.2022 05:00 15,4 C 14,4 C 11,1 C 72 % 1019,2 hPa 0,0 l/m 0,00 h 0,00 h 10 W/m 3,5 km/h (1 Bft) 99,43 %
16.06.2022 06:00 15,0 C 14,4 C 11,1 C 73 % 1019,7 hPa 0,0 l/m 0,00 h 0,00 h 26 W/m 5,9 km/h (2 Bft) 96,40 %
16.06.2022 07:00 15,5 C 15,2 C 11,7 C 72 % 1020,4 hPa 0,0 l/m 0,33 h 0,00 h 129 W/m 6,7 km/h (2 Bft) 97,44 %
16.06.2022 08:00 17,4 C 19,8 C 14,7 C 67 % 1020,9 hPa 0,0 l/m 1,00 h 0,00 h 415 W/m 8,9 km/h (2 Bft) 98,15 %
16.06.2022 09:00 19,7 C 25,8 C 18,8 C 59 % 1021,5 hPa 0,0 l/m 1,00 h 0,00 h 594 W/m 9,5 km/h (2 Bft) 97,85 %
16.06.2022 10:00 20,8 C 24,4 C 21,5 C 56 % 1022,0 hPa 0,0 l/m 1,00 h 0,00 h 744 W/m 13,9 km/h (3 Bft) 97,72 %
16.06.2022 11:00 21,9 C 25,2 C 20,9 C 53 % 1022,4 hPa 0,0 l/m 1,00 h 0,00 h 859 W/m 16,0 km/h (3 Bft) 96,51 %
16.06.2022 12:00 23,2 C 25,7 C 27,8 C 50 % 1022,9 hPa 0,0 l/m 1,00 h 0,00 h 929 W/m 12,8 km/h (3 Bft) 97,08 %
16.06.2022 13:00 24,1 C 26,1 C 28,7 C 49 % 1022,8 hPa 0,0 l/m 1,00 h 0,00 h 958 W/m 15,5 km/h (3 Bft) 99,71 %
16.06.2022 14:00 25,1 C 28,1 C 21,7 C 48 % 1022,7 hPa 0,0 l/m 1,00 h 0,00 h 941 W/m 14,5 km/h (3 Bft) 95,45 %
16.06.2022 15:00 25,6 C 28,0 C 21,5 C 48 % 1023,0 hPa 0,0 l/m 1,00 h 0,03 h 877 W/m 17,5 km/h (3 Bft) 97,34 %
16.06.2022 16:00 25,8 C 30,5 C 22,0 C 48 % 1023,0 hPa 0,0 l/m 1,00 h 0,00 h 772 W/m 16,4 km/h (3 Bft) 97,37 %
16.06.2022 17:00 26,1 C 31,3 C 22,6 C 47 % 1022,7 hPa 0,0 l/m 1,00 h 0,00 h 633 W/m 14,4 km/h (3 Bft) 96,80 %
16.06.2022 18:00 26,2 C 30,8 C 22,6 C 47 % 1022,7 hPa 0,0 l/m 0,97 h 0,00 h 417 W/m 11,2 km/h (2 Bft) 94,87 %
16.06.2022 19:00 24,3 C 24,2 C 20,4 C 51 % 1022,6 hPa 0,0 l/m 0,17 h 0,00 h 146 W/m 9,3 km/h (2 Bft) 97,58 %
16.06.2022 20:00 23,3 C 22,7 C 19,2 C 55 % 1022,9 hPa 0,0 l/m 0,23 h 0,00 h 80 W/m 7,3 km/h (2 Bft) 98,14 %
16.06.2022 21:00 22,1 C 20,8 C 17,5 C 59 % 1023,0 hPa 0,0 l/m 0,00 h 0,00 h 11 W/m 3,1 km/h (1 Bft) 97,07 %
16.06.2022 22:00 20,6 C 18,6 C 15,4 C 68 % 1023,6 hPa 0,0 l/m 0,00 h 0,00 h 0 W/m 0,1 km/h (0 Bft) 96,65 %
16.06.2022 23:00 18,9 C 17,3 C 14,2 C 73 % 1023,8 hPa 0,0 l/m 0,00 h 0,00 h 0 W/m 0,0 km/h (0 Bft) 98,20 %
17.06.2022 00:00 17,5 C 15,9 C 12,9 C 79 % 1024,2 hPa 0,0 l/m 0,00 h 0,00 h 0 W/m 0,0 km/h (0 Bft) 98,42 %
17.06.2022 01:00 16,3 C 14,9 C 12,0 C 82 % 1024,2 hPa 0,0 l/m 0,00 h 0,00 h 0 W/m 0,0 km/h (0 Bft) 96,23 %
17.06.2022 02:00 15,4 C 14,2 C 11,2 C 84 % 1024,1 hPa 0,0 l/m 0,00 h 0,00 h 0 W/m 0,0 km/h (0 Bft) 97,54 %
17.06.2022 03:00 15,0 C 14,0 C 11,2 C 85 % 1024,2 hPa 0,0 l/m 0,00 h 0,00 h 0 W/m 0,0 km/h (0 Bft) 98,00 %
17.06.2022 04:00 14,6 C 13,4 C 10,6 C 87 % 1024,2 hPa 0,0 l/m 0,00 h 0,00 h 0 W/m 0,0 km/h (0 Bft) 97,42 %
17.06.2022 05:00 14,1 C 13,0 C 10,2 C 89 % 1024,3 hPa 0,0 l/m 0,00 h 0,00 h 8 W/m 0,0 km/h (0 Bft) 97,03 %
17.06.2022 06:00 14,2 C 14,2 C 11,2 C 89 % 1024,6 hPa 0,0 l/m 0,00 h 0,00 h 30 W/m 0,0 km/h (0 Bft) 93,67 %
17.06.2022 07:00 15,8 C 16,2 C 12,8 C 86 % 1024,5 hPa 0,0 l/m 0,00 h 0,00 h 85 W/m 0,0 km/h (0 Bft) 99,26 %
17.06.2022 08:00 18,4 C 20,1 C 15,9 C 79 % 1024,3 hPa 0,0 l/m 0,67 h 0,00 h 345 W/m 2,0 km/h (1 Bft) 95,81 %
17.06.2022 09:00 21,8 C 25,4 C 20,2 C 66 % 1024,4 hPa 0,0 l/m 1,00 h 0,00 h 550 W/m 10,2 km/h (2 Bft) 97,40 %
17.06.2022 10:00 23,5 C 25,0 C 22,5 C 61 % 1024,2 hPa 0,0 l/m 0,97 h 0,00 h 608 W/m 12,1 km/h (2 Bft) 97,73 %
17.06.2022 11:00 24,8 C 26,0 C 22,4 C 55 % 1024,0 hPa 0,0 l/m 1,00 h 0,00 h 702 W/m 14,9 km/h (3 Bft) 98,01 %
17.06.2022 12:00 26,4 C 27,8 C 27,9 C 51 % 1023,7 hPa 0,0 l/m 1,00 h 0,00 h 815 W/m 12,5 km/h (3 Bft) 96,40 %
17.06.2022 13:00 28,0 C 29,2 C 29,3 C 47 % 1023,2 hPa 0,0 l/m 1,00 h 0,00 h 822 W/m 13,2 km/h (3 Bft) 97,72 %
17.06.2022 14:00 29,4 C 31,1 C 25,9 C 42 % 1022,6 hPa 0,0 l/m 1,00 h 0,03 h 889 W/m 14,1 km/h (3 Bft) 97,79 %
17.06.2022 15:00 30,7 C 32,7 C 25,9 C 41 % 1021,8 hPa 0,0 l/m 1,00 h 0,00 h 843 W/m 15,1 km/h (3 Bft) 97,86 %
17.06.2022 16:00 31,1 C 33,8 C 26,3 C 41 % 1021,4 hPa 0,0 l/m 1,00 h 0,00 h 636 W/m 13,4 km/h (3 Bft) 96,72 %
17.06.2022 17:00 31,3 C 34,4 C 26,5 C 40 % 1020,8 hPa 0,0 l/m 1,00 h 0,00 h 519 W/m 13,1 km/h (3 Bft) 99,29 %
17.06.2022 18:00 31,3 C 34,2 C 26,3 C 42 % 1020,4 hPa 0,0 l/m 1,00 h 0,00 h 389 W/m 10,1 km/h (2 Bft) 96,47 %
17.06.2022 19:00 30,5 C 30,4 C 24,7 C 44 % 1020,1 hPa 0,0 l/m 1,00 h 0,00 h 259 W/m 6,1 km/h (2 Bft) 97,86 %
17.06.2022 20:00 29,4 C 28,1 C 23,3 C 49 % 1019,7 hPa 0,0 l/m 0,13 h 0,00 h 85 W/m 4,2 km/h (1 Bft) 99,22 %
17.06.2022 21:00 27,7 C 25,2 C 20,2 C 57 % 1019,7 hPa 0,0 l/m 0,00 h 0,00 h 20 W/m 0,2 km/h (0 Bft) 96,09 %
17.06.2022 22:00 25,8 C 23,3 C 18,4 C 62 % 1019,8 hPa 0,0 l/m 0,00 h 0,00 h 4 W/m 1,0 km/h (0 Bft) 97,93 %
17.06.2022 23:00 24,3 C 22,8 C 18,4 C 64 % 1019,6 hPa 0,0 l/m 0,00 h 0,00 h 0 W/m 2,8 km/h (1 Bft) 98,63 %
18.06.2022 00:00 23,5 C 22,3 C 18,4 C 66 % 1019,3 hPa 0,0 l/m 0,00 h 0,00 h 0 W/m 3,2 km/h (1 Bft) 96,41 %
18.06.2022 01:00 22,9 C 21,6 C 18,0 C 67 % 1019,0 hPa 0,0 l/m 0,00 h 0,00 h 0 W/m 3,3 km/h (1 Bft) 97,72 %
18.06.2022 02:00 22,0 C 20,7 C 17,4 C 69 % 1018,6 hPa 0,0 l/m 0,00 h 0,00 h 0 W/m 3,4 km/h (1 Bft) 98,93 %
18.06.2022 03:00 21,5 C 20,4 C 17,1 C 69 % 1018,3 hPa 0,0 l/m 0,00 h 0,00 h 0 W/m 5,1 km/h (1 Bft) 95,40 %
18.06.2022 04:00 20,9 C 19,4 C 15,8 C 71 % 1018,0 hPa 0,0 l/m 0,00 h 0,00 h 0 W/m 1,8 km/h (1 Bft) 99,65 %
18.06.2022 05:00 19,9 C 18,8 C 15,1 C 75 % 1018,1 hPa 0,0 l/m 0,00 h 0,00 h 11 W/m 1,3 km/h (1 Bft) 97,27 %
18.06.2022 06:00 20,0 C 19,4 C 15,6 C 77 % 1018,1 hPa 0,0 l/m 0,00 h 0,00 h 44 W/m 1,1 km/h (0 Bft) 96,97 %
18.06.2022 07:00 20,8 C 20,9 C 17,0 C 77 % 1017,9 hPa 0,0 l/m 0,33 h 0,00 h 128 W/m 2,7 km/h (1 Bft) 98,58 %
18.06.2022 08:00 23,6 C 25,4 C 20,3 C 71 % 1017,9 hPa 0,0 l/m 1,00 h 0,00 h 318 W/m 5,0 km/h (1 Bft) 98,00 %
18.06.2022 09:00 26,1 C 29,6 C 24,4 C 63 % 1017,9 hPa 0,0 l/m 1,00 h 0,00 h 487 W/m 8,7 km/h (2 Bft) 96,27 %
18.06.2022 10:00 27,7 C 29,8 C 27,8 C 58 % 1017,4 hPa 0,0 l/m 1,00 h 0,00 h 625 W/m 9,8 km/h (2 Bft) 99,36 %
18.06.2022 11:00 29,5 C 31,3 C 27,9 C 53 % 1017,0 hPa 0,0 l/m 1,00 h 0,00 h 739 W/m 12,1 km/h (2 Bft) 96,37 %
18.06.2022 12:00 31,1 C 32,3 C 32,7 C 51 % 1016,8 hPa 0,0 l/m 1,00 h 0,00 h 798 W/m 11,4 km/h (2 Bft) 98,48 %
18.06.2022 13:00 32,4 C 33,5 C 35,2 C 49 % 1016,3 hPa 0,0 l/m 1,00 h 0,00 h 848 W/m 11,7 km/h (2 Bft) 98,15 %
18.06.2022 14:00 33,3 C 35,2 C 30,1 C 47 % 1015,5 hPa 0,0 l/m 1,00 h 0,00 h 830 W/m 10,6 km/h (2 Bft) 96,37 %
18.06.2022 15:00 34,1 C 35,8 C 29,4 C 47 % 1014,7 hPa 0,0 l/m 1,00 h 0,00 h 777 W/m 10,5 km/h (2 Bft) 99,07 %
18.06.2022 16:00 34,5 C 37,8 C 29,6 C 46 % 1013,9 hPa 0,0 l/m 1,00 h 0,00 h 678 W/m 9,6 km/h (2 Bft) 96,59 %
18.06.2022 17:00 34,7 C 37,8 C 29,9 C 47 % 1013,1 hPa 0,0 l/m 1,00 h 0,00 h 519 W/m 8,6 km/h (2 Bft) 97,86 %
18.06.2022 18:00 34,4 C 37,3 C 29,8 C 47 % 1012,5 hPa 0,0 l/m 1,00 h 0,00 h 384 W/m 8,6 km/h (2 Bft) 98,80 %
18.06.2022 19:00 33,3 C 33,2 C 28,0 C 51 % 1011,8 hPa 0,0 l/m 0,93 h 0,00 h 206 W/m 7,3 km/h (2 Bft) 96,88 %
18.06.2022 20:00 30,6 C 29,7 C 25,8 C 58 % 1011,4 hPa 0,0 l/m 0,00 h 0,00 h 69 W/m 10,0 km/h (2 Bft) 96,36 %
18.06.2022 21:00 28,7 C 27,4 C 23,8 C 62 % 1010,9 hPa 0,0 l/m 0,00 h 0,00 h 16 W/m 7,4 km/h (2 Bft) 99,15 %
18.06.2022 22:00 27,0 C 25,6 C 22,0 C 67 % 1010,3 hPa 0,0 l/m 0,00 h 0,00 h 0 W/m 5,7 km/h (1 Bft) 96,93 %
18.06.2022 23:00 25,5 C 24,2 C 20,8 C 72 % 1009,4 hPa 0,0 l/m 0,00 h 0,00 h 0 W/m 4,4 km/h (1 Bft) 97,45 %
19.06.2022 00:00 25,0 C 23,9 C 20,6 C 73 % 1008,9 hPa 0,0 l/m 0,00 h 0,00 h 0 W/m 6,7 km/h (2 Bft) 97,28 %
19.06.2022 01:00 24,1 C 23,0 C 19,5 C 76 % 1008,3 hPa 0,0 l/m 0,00 h 0,00 h 0 W/m 7,5 km/h (2 Bft) 97,86 %
19.06.2022 02:00 22,4 C 21,4 C 18,0 C 81 % 1007,4 hPa 0,0 l/m 0,00 h 0,00 h 0 W/m 7,1 km/h (2 Bft) 97,30 %
19.06.2022 03:00 21,3 C 20,3 C 17,0 C 84 % 1006,5 hPa 0,0 l/m 0,00 h 0,00 h 0 W/m 7,0 km/h (2 Bft) 96,94 %
19.06.2022 04:00 19,0 C 18,0 C 15,0 C 84 % 1006,9 hPa 0,0 l/m 0,00 h 0,00 h 0 W/m 17,4 km/h (3 Bft) 98,75 %
19.06.2022 05:00 16,7 C 16,0 C 12,8 C 83 % 1008,1 hPa 0,0 l/m 0,00 h 0,00 h 11 W/m 23,0 km/h (4 Bft) 96,51 %
19.06.2022 06:00 15,4 C 15,1 C 11,7 C 78 % 1009,0 hPa 0,0 l/m 0,00 h 0,00 h 39 W/m 20,5 km/h (4 Bft) 98,18 %
19.06.2022 07:00 15,8 C 15,8 C 12,2 C 72 % 1009,0 hPa 0,0 l/m 0,28 h 0,00 h 127 W/m 16,7 km/h (3 Bft) 96,78 %
19.06.2022 08:00 17,8 C 19,7 C 14,9 C 71 % 1008,4 hPa 0,0 l/m 0,93 h 0,00 h 335 W/m 9,8 km/h (2 Bft) 96,93 %
19.06.2022 09:00 18,6 C 20,4 C 16,7 C 69 % 1011,5 hPa 0,0 l/m 0,87 h 0,00 h 409 W/m 15,8 km/h (3 Bft) 95,85 %
19.06.2022 10:00 18,9 C 20,4 C 17,2 C 66 % 1011,5 hPa 0,0 l/m 1,00 h 0,00 h 504 W/m 17,4 km/h (3 Bft) 99,52 %
19.06.2022 11:00 19,2 C 19,6 C 16,0 C 65 % 1010,8 hPa 0,0 l/m 0,03 h 0,00 h 230 W/m 10,1 km/h (2 Bft) 97,16 %
19.06.2022 12:00 19,6 C 20,6 C 17,6 C 67 % 1009,8 hPa 0,0 l/m 0,47 h 0,00 h 529 W/m 13,4 km/h (3 Bft) 96,33 %
19.06.2022 13:00 21,1 C 22,4 C 19,8 C 65 % 1010,3 hPa 0,0 l/m 0,90 h 0,00 h 589 W/m 14,7 km/h (3 Bft) 98,43 %
19.06.2022 14:00 21,6 C 23,0 C 18,5 C 65 % 1011,3 hPa 0,0 l/m 0,87 h 0,00 h 712 W/m 18,1 km/h (3 Bft) 97,58 %
19.06.2022 15:00 22,3 C 23,9 C 18,8 C 65 % 1012,4 hPa 0,0 l/m 0,93 h 0,00 h 680 W/m 18,2 km/h (3 Bft) 97,01 %
19.06.2022 16:00 22,5 C 26,0 C 19,0 C 64 % 1012,9 hPa 0,0 l/m 1,00 h 0,00 h 726 W/m 23,6 km/h (4 Bft) 98,57 %
19.06.2022 17:00 21,5 C 23,6 C 18,3 C 65 % 1012,7 hPa 0,0 l/m 0,53 h 0,00 h 366 W/m 18,1 km/h (3 Bft) 97,08 %
19.06.2022 18:00 21,2 C 23,8 C 18,1 C 68 % 1011,5 hPa 0,0 l/m 0,80 h 0,00 h 358 W/m 15,7 km/h (3 Bft) 98,71 %
19.06.2022 19:00 20,3 C 20,2 C 16,7 C 70 % 1012,4 hPa 0,0 l/m 0,20 h 0,00 h 154 W/m 19,4 km/h (3 Bft) 95,67 %
19.06.2022 20:00 18,5 C 17,7 C 14,6 C 76 % 1012,4 hPa 0,0 l/m 0,00 h 0,07 h 19 W/m 18,2 km/h (3 Bft) 98,94 %
19.06.2022 21:00 17,1 C 16,4 C 13,0 C 83 % 1012,5 hPa 0,0 l/m 0,07 h 0,20 h 15 W/m 13,7 km/h (3 Bft) 97,08 %
19.06.2022 22:00 15,8 C 14,8 C 11,4 C 88 % 1012,7 hPa 0,8 l/m 0,00 h 0,20 h 0 W/m 11,3 km/h (2 Bft) 97,23 %
19.06.2022 23:00 15,1 C 14,4 C 11,2 C 91 % 1013,1 hPa 0,0 l/m 0,00 h 0,00 h 0 W/m 8,4 km/h (2 Bft) 97,72 %
Min-Datum _ 14.06.22 14.06.22 14.06.22 17.06.22 19.06.22 - - - - 13.06.22 14.06.22
_ Min-Zeit 06:07 04:42 05:06 17:14 04:05 - - - - 00:00 00:02
Minimum _ 9,2 C 8,3 C 5,6 C 38 % 1006,3 hPa - - - - 0,0 km/h (0 Bft) 9,09 %
Max-Datum _ 18.06.22 18.06.22 18.06.22 13.06.22 17.06.22 13.06.22 19.06.22 13.06.22 13.06.22 19.06.22 13.06.22
_ Max-Zeit 17:18 16:32 13:34 08:20 06:40 06:26 07:54 06:16 12:52 16:40 00:00
Maximum _ 34,8 C 38,9 C 36,7 C 95 % 1024,7 hPa 2,4 l/m 0,08 h 0,03 h 1184 W/m 45,1 km/h
N-NW (6 Bft)
100,00 %
Durchschnitt _ 20,9 C 21,6 C 17,5 C 66 % 1019,0 hPa #4,2 l/m #75:37 h #1:14 h 435 W/m 8,2 km/h (2 Bft) 97,52 %
© 2022 W. Hausmann